TimeAKDT,TemperatureF,Dew PointF,Humidity,Sea Level PressureIn,VisibilityMPH,Wind Direction,Wind SpeedMPH,Gust SpeedMPH,PrecipitationIn,Events,Conditions,WindDirDegrees,DateUTC
12:53 AM,55.0,46.9,74,30.05,10.0,Calm,Calm,-,N/A,,Overcast,0,2013-07-07 08:53:00
1:53 AM,54.0,46.9,77,30.05,10.0,Calm,Calm,-,N/A,,Overcast,0,2013-07-07 09:53:00
2:53 AM,54.0,46.9,77,30.05,10.0,NNE,3.5,-,N/A,,Overcast,20,2013-07-07 10:53:00
3:53 AM,54.0,48.0,80,30.04,10.0,NNE,3.5,-,N/A,,Overcast,30,2013-07-07 11:53:00
4:53 AM,54.0,48.0,80,30.04,10.0,Calm,Calm,-,N/A,,Overcast,0,2013-07-07 12:53:00
5:53 AM,54.0,48.9,83,30.02,10.0,Calm,Calm,-,N/A,,Overcast,0,2013-07-07 13:53:00
6:53 AM,55.0,48.9,80,30.02,10.0,Calm,Calm,-,N/A,,Overcast,0,2013-07-07 14:53:00
7:53 AM,55.0,48.0,77,30.03,10.0,Calm,Calm,-,N/A,,Overcast,0,2013-07-07 15:53:00
8:53 AM,55.0,46.9,74,30.02,10.0,Calm,Calm,-,N/A,,Overcast,0,2013-07-07 16:53:00
9:53 AM,55.9,46.9,72,30.01,10.0,WSW,4.6,-,N/A,,Overcast,250,2013-07-07 17:53:00
10:53 AM,55.9,48.0,75,30.01,10.0,Calm,Calm,-,N/A,,Overcast,0,2013-07-07 18:53:00
11:53 AM,57.0,46.0,67,30.00,10.0,Variable,6.9,-,N/A,,Overcast,0,2013-07-07 19:53:00
12:53 PM,60.1,44.1,55,30.00,10.0,SSW,10.4,-,N/A,,Overcast,210,2013-07-07 20:53:00
1:53 PM,59.0,45.0,60,29.99,10.0,SSW,16.1,23.0,N/A,,Overcast,200,2013-07-07 21:53:00
2:53 PM,60.1,45.0,57,29.97,10.0,SSW,15.0,21.9,N/A,,Overcast,200,2013-07-07 22:53:00
3:53 PM,60.1,46.0,60,29.96,10.0,SSW,15.0,-,N/A,,Overcast,210,2013-07-07 23:53:00
4:53 PM,61.0,46.0,58,29.95,10.0,SSW,13.8,-,N/A,,Overcast,210,2013-07-08 00:53:00
5:53 PM,61.0,46.9,60,29.93,10.0,SSW,15.0,-,N/A,,Overcast,210,2013-07-08 01:53:00
6:53 PM,61.0,46.9,60,29.91,10.0,SSW,12.7,-,N/A,,Overcast,210,2013-07-08 02:53:00
7:53 PM,59.0,46.9,64,29.90,10.0,Calm,Calm,-,N/A,,Overcast,0,2013-07-08 03:53:00
8:53 PM,57.9,48.9,72,29.88,10.0,Calm,Calm,-,0.00,,Overcast,0,2013-07-08 04:53:00
9:53 PM,55.9,48.0,75,29.88,10.0,Calm,Calm,-,0.00,Rain,Light Rain,0,2013-07-08 05:53:00
10:53 PM,54.0,48.9,83,29.88,10.0,Calm,Calm,-,0.00,Rain,Light Rain,0,2013-07-08 06:53:00
11:27 PM,55.4,51.8,88,29.86,10.0,Calm,Calm,-,0.00,Rain,Light Rain,0,2013-07-08 07:27:00
11:37 PM,53.6,50.0,88,29.86,10.0,Calm,Calm,-,0.01,Rain,Light Rain,0,2013-07-08 07:37:00
11:53 PM,54.0,50.0,86,29.86,10.0,Calm,Calm,-,0.01,Rain,Light Rain,0,2013-07-08 07:53:00